sensor_id;sensor_type;location;lat;lon;timestamp;P1;durP1;ratioP1;P2;durP2;ratioP2
57073;SDS011;69035;54.392;18.574;2023-04-24T00:00:28;30.08;;;18.63;;
57073;SDS011;69035;54.392;18.574;2023-04-24T00:03:18;32.13;;;20.15;;
57073;SDS011;69035;54.392;18.574;2023-04-24T00:05:48;30.73;;;19.75;;
57073;SDS011;69035;54.392;18.574;2023-04-24T00:08:17;30.45;;;21.10;;
57073;SDS011;69035;54.392;18.574;2023-04-24T00:10:47;29.70;;;19.83;;
57073;SDS011;69035;54.392;18.574;2023-04-24T00:13:16;32.00;;;20.17;;
57073;SDS011;69035;54.392;18.574;2023-04-24T00:15:44;31.75;;;21.00;;
57073;SDS011;69035;54.392;18.574;2023-04-24T00:18:13;35.13;;;23.40;;
57073;SDS011;69035;54.392;18.574;2023-04-24T00:20:42;38.53;;;25.38;;
57073;SDS011;69035;54.392;18.574;2023-04-24T00:23:11;37.65;;;25.35;;
57073;SDS011;69035;54.392;18.574;2023-04-24T00:25:40;39.90;;;25.97;;
57073;SDS011;69035;54.392;18.574;2023-04-24T00:28:10;44.40;;;27.63;;
57073;SDS011;69035;54.392;18.574;2023-04-24T00:30:40;43.42;;;26.80;;
57073;SDS011;69035;54.392;18.574;2023-04-24T00:33:09;49.75;;;28.40;;
57073;SDS011;69035;54.392;18.574;2023-04-24T00:35:37;44.72;;;26.38;;
57073;SDS011;69035;54.392;18.574;2023-04-24T00:38:06;46.38;;;26.27;;
57073;SDS011;69035;54.392;18.574;2023-04-24T00:40:35;45.63;;;25.42;;
57073;SDS011;69035;54.392;18.574;2023-04-24T00:43:04;44.90;;;25.90;;
57073;SDS011;69035;54.392;18.574;2023-04-24T00:45:37;40.92;;;25.95;;
57073;SDS011;69035;54.392;18.574;2023-04-24T00:48:06;41.83;;;24.80;;
57073;SDS011;69035;54.392;18.574;2023-04-24T00:50:35;41.50;;;25.80;;
57073;SDS011;69035;54.392;18.574;2023-04-24T00:53:04;41.40;;;25.13;;
57073;SDS011;69035;54.392;18.574;2023-04-24T00:55:33;43.20;;;25.55;;
57073;SDS011;69035;54.392;18.574;2023-04-24T00:58:04;43.90;;;25.98;;
57073;SDS011;69035;54.392;18.574;2023-04-24T01:00:32;40.97;;;25.20;;
57073;SDS011;69035;54.392;18.574;2023-04-24T01:05:35;41.97;;;25.25;;
57073;SDS011;69035;54.392;18.574;2023-04-24T01:08:05;43.00;;;25.33;;
57073;SDS011;69035;54.392;18.574;2023-04-24T01:13:05;37.83;;;22.75;;
57073;SDS011;69035;54.392;18.574;2023-04-24T01:15:33;39.63;;;23.95;;
57073;SDS011;69035;54.392;18.574;2023-04-24T01:18:02;38.70;;;23.60;;
57073;SDS011;69035;54.392;18.574;2023-04-24T01:20:33;37.33;;;22.77;;
57073;SDS011;69035;54.392;18.574;2023-04-24T01:23:05;36.92;;;22.20;;
57073;SDS011;69035;54.392;18.574;2023-04-24T01:25:33;40.30;;;23.02;;
57073;SDS011;69035;54.392;18.574;2023-04-24T01:28:03;38.25;;;22.83;;
57073;SDS011;69035;54.392;18.574;2023-04-24T01:30:31;37.95;;;22.33;;
57073;SDS011;69035;54.392;18.574;2023-04-24T01:33:01;35.92;;;20.42;;
57073;SDS011;69035;54.392;18.574;2023-04-24T01:35:30;34.05;;;20.23;;
57073;SDS011;69035;54.392;18.574;2023-04-24T01:40:30;35.28;;;19.73;;
57073;SDS011;69035;54.392;18.574;2023-04-24T01:42:59;34.55;;;20.35;;
57073;SDS011;69035;54.392;18.574;2023-04-24T01:45:29;36.53;;;20.15;;
57073;SDS011;69035;54.392;18.574;2023-04-24T01:47:58;39.28;;;20.27;;
57073;SDS011;69035;54.392;18.574;2023-04-24T01:50:28;41.65;;;23.52;;
57073;SDS011;69035;54.392;18.574;2023-04-24T01:52:57;48.35;;;25.95;;
57073;SDS011;69035;54.392;18.574;2023-04-24T01:55:25;58.00;;;32.25;;
57073;SDS011;69035;54.392;18.574;2023-04-24T01:57:57;60.88;;;34.42;;
57073;SDS011;69035;54.392;18.574;2023-04-24T02:00:27;58.90;;;31.98;;
57073;SDS011;69035;54.392;18.574;2023-04-24T02:02:56;54.57;;;29.37;;
57073;SDS011;69035;54.392;18.574;2023-04-24T02:05:26;56.05;;;29.33;;
57073;SDS011;69035;54.392;18.574;2023-04-24T02:07:55;41.83;;;22.77;;
57073;SDS011;69035;54.392;18.574;2023-04-24T02:10:24;39.10;;;20.20;;
57073;SDS011;69035;54.392;18.574;2023-04-24T02:12:53;37.58;;;19.13;;
57073;SDS011;69035;54.392;18.574;2023-04-24T02:15:25;37.28;;;19.13;;
57073;SDS011;69035;54.392;18.574;2023-04-24T02:17:54;37.55;;;19.23;;
57073;SDS011;69035;54.392;18.574;2023-04-24T02:20:23;42.05;;;20.70;;
57073;SDS011;69035;54.392;18.574;2023-04-24T02:22:52;38.47;;;20.27;;
57073;SDS011;69035;54.392;18.574;2023-04-24T02:25:21;39.87;;;19.87;;
57073;SDS011;69035;54.392;18.574;2023-04-24T02:27:53;39.28;;;19.70;;
57073;SDS011;69035;54.392;18.574;2023-04-24T02:30:21;40.88;;;20.95;;
57073;SDS011;69035;54.392;18.574;2023-04-24T02:32:54;45.13;;;20.45;;
57073;SDS011;69035;54.392;18.574;2023-04-24T02:35:23;41.55;;;20.25;;
57073;SDS011;69035;54.392;18.574;2023-04-24T02:37:51;42.00;;;19.35;;
57073;SDS011;69035;54.392;18.574;2023-04-24T02:40:20;42.53;;;19.95;;
57073;SDS011;69035;54.392;18.574;2023-04-24T02:42:49;40.33;;;20.50;;
57073;SDS011;69035;54.392;18.574;2023-04-24T02:45:17;44.58;;;19.17;;
57073;SDS011;69035;54.392;18.574;2023-04-24T02:47:46;39.28;;;20.63;;
57073;SDS011;69035;54.392;18.574;2023-04-24T02:50:16;47.47;;;20.60;;
57073;SDS011;69035;54.392;18.574;2023-04-24T02:52:45;45.95;;;21.35;;
57073;SDS011;69035;54.392;18.574;2023-04-24T02:55:13;49.13;;;21.27;;
57073;SDS011;69035;54.392;18.574;2023-04-24T02:57:42;50.88;;;21.88;;
57073;SDS011;69035;54.392;18.574;2023-04-24T03:00:11;52.15;;;20.98;;
57073;SDS011;69035;54.392;18.574;2023-04-24T03:05:09;45.78;;;19.33;;
57073;SDS011;69035;54.392;18.574;2023-04-24T03:07:40;50.20;;;20.63;;
57073;SDS011;69035;54.392;18.574;2023-04-24T03:10:09;47.90;;;21.08;;
57073;SDS011;69035;54.392;18.574;2023-04-24T03:12:41;48.58;;;21.08;;
57073;SDS011;69035;54.392;18.574;2023-04-24T03:15:09;48.05;;;19.60;;
57073;SDS011;69035;54.392;18.574;2023-04-24T03:17:39;48.47;;;21.70;;
57073;SDS011;69035;54.392;18.574;2023-04-24T03:20:08;45.85;;;19.08;;
57073;SDS011;69035;54.392;18.574;2023-04-24T03:22:37;46.58;;;18.90;;
57073;SDS011;69035;54.392;18.574;2023-04-24T03:25:08;44.85;;;19.88;;
57073;SDS011;69035;54.392;18.574;2023-04-24T03:27:38;44.60;;;20.63;;
57073;SDS011;69035;54.392;18.574;2023-04-24T03:30:33;43.05;;;19.33;;
57073;SDS011;69035;54.392;18.574;2023-04-24T03:33:03;51.03;;;21.02;;
57073;SDS011;69035;54.392;18.574;2023-04-24T03:35:36;47.78;;;19.40;;
57073;SDS011;69035;54.392;18.574;2023-04-24T03:38:10;45.83;;;20.00;;
57073;SDS011;69035;54.392;18.574;2023-04-24T03:40:39;50.92;;;20.58;;
57073;SDS011;69035;54.392;18.574;2023-04-24T03:43:22;53.20;;;20.05;;
57073;SDS011;69035;54.392;18.574;2023-04-24T03:45:50;52.42;;;19.38;;
57073;SDS011;69035;54.392;18.574;2023-04-24T03:48:19;44.85;;;19.40;;
57073;SDS011;69035;54.392;18.574;2023-04-24T03:50:48;45.20;;;17.45;;
57073;SDS011;69035;54.392;18.574;2023-04-24T03:53:18;44.77;;;18.83;;
57073;SDS011;69035;54.392;18.574;2023-04-24T03:55:48;43.85;;;19.50;;
57073;SDS011;69035;54.392;18.574;2023-04-24T03:58:17;38.83;;;18.38;;
57073;SDS011;69035;54.392;18.574;2023-04-24T04:00:46;43.53;;;19.15;;
57073;SDS011;69035;54.392;18.574;2023-04-24T04:03:51;37.15;;;16.73;;
57073;SDS011;69035;54.392;18.574;2023-04-24T04:06:23;34.42;;;16.88;;
57073;SDS011;69035;54.392;18.574;2023-04-24T04:08:55;35.60;;;17.77;;
57073;SDS011;69035;54.392;18.574;2023-04-24T04:13:52;43.13;;;18.57;;
57073;SDS011;69035;54.392;18.574;2023-04-24T04:16:21;41.83;;;19.50;;
57073;SDS011;69035;54.392;18.574;2023-04-24T04:18:55;38.67;;;18.58;;
57073;SDS011;69035;54.392;18.574;2023-04-24T04:21:24;37.10;;;18.35;;
57073;SDS011;69035;54.392;18.574;2023-04-24T04:24:04;34.58;;;17.35;;
57073;SDS011;69035;54.392;18.574;2023-04-24T04:26:37;39.75;;;18.17;;
57073;SDS011;69035;54.392;18.574;2023-04-24T04:29:09;33.67;;;16.88;;
57073;SDS011;69035;54.392;18.574;2023-04-24T04:31:42;35.20;;;17.40;;
57073;SDS011;69035;54.392;18.574;2023-04-24T04:34:12;34.30;;;17.25;;
57073;SDS011;69035;54.392;18.574;2023-04-24T04:36:42;29.45;;;17.23;;
57073;SDS011;69035;54.392;18.574;2023-04-24T04:39:24;39.83;;;17.70;;
57073;SDS011;69035;54.392;18.574;2023-04-24T04:42:04;34.17;;;17.55;;
57073;SDS011;69035;54.392;18.574;2023-04-24T04:44:40;36.15;;;18.48;;
57073;SDS011;69035;54.392;18.574;2023-04-24T04:47:14;36.83;;;17.63;;
57073;SDS011;69035;54.392;18.574;2023-04-24T04:49:45;42.53;;;19.25;;
57073;SDS011;69035;54.392;18.574;2023-04-24T04:52:20;38.47;;;18.42;;
57073;SDS011;69035;54.392;18.574;2023-04-24T04:55:01;36.85;;;17.92;;
57073;SDS011;69035;54.392;18.574;2023-04-24T04:57:50;39.92;;;18.83;;
57073;SDS011;69035;54.392;18.574;2023-04-24T05:00:19;36.22;;;18.23;;
57073;SDS011;69035;54.392;18.574;2023-04-24T05:02:52;35.90;;;18.17;;
57073;SDS011;69035;54.392;18.574;2023-04-24T05:05:35;35.75;;;18.25;;
57073;SDS011;69035;54.392;18.574;2023-04-24T05:08:10;38.63;;;19.65;;
57073;SDS011;69035;54.392;18.574;2023-04-24T05:10:54;34.90;;;18.08;;
57073;SDS011;69035;54.392;18.574;2023-04-24T05:13:26;39.25;;;19.13;;
57073;SDS011;69035;54.392;18.574;2023-04-24T05:16:14;83.88;;;39.13;;
57073;SDS011;69035;54.392;18.574;2023-04-24T05:18:45;94.97;;;54.00;;
57073;SDS011;69035;54.392;18.574;2023-04-24T05:21:18;102.22;;;46.97;;
57073;SDS011;69035;54.392;18.574;2023-04-24T05:23:50;36.55;;;17.85;;
57073;SDS011;69035;54.392;18.574;2023-04-24T05:26:39;39.50;;;18.30;;
57073;SDS011;69035;54.392;18.574;2023-04-24T05:29:08;36.75;;;18.60;;
57073;SDS011;69035;54.392;18.574;2023-04-24T05:31:39;37.53;;;18.58;;
57073;SDS011;69035;54.392;18.574;2023-04-24T05:34:07;38.53;;;19.25;;
57073;SDS011;69035;54.392;18.574;2023-04-24T05:36:41;38.88;;;18.92;;
57073;SDS011;69035;54.392;18.574;2023-04-24T05:39:09;37.00;;;18.48;;
57073;SDS011;69035;54.392;18.574;2023-04-24T05:41:40;40.50;;;20.27;;
57073;SDS011;69035;54.392;18.574;2023-04-24T05:44:08;34.97;;;18.13;;
57073;SDS011;69035;54.392;18.574;2023-04-24T05:46:38;34.50;;;17.40;;
57073;SDS011;69035;54.392;18.574;2023-04-24T05:49:09;39.65;;;18.40;;
57073;SDS011;69035;54.392;18.574;2023-04-24T05:51:37;37.40;;;18.25;;
57073;SDS011;69035;54.392;18.574;2023-04-24T05:54:08;37.00;;;18.30;;
57073;SDS011;69035;54.392;18.574;2023-04-24T05:56:41;36.83;;;17.77;;
57073;SDS011;69035;54.392;18.574;2023-04-24T05:59:13;35.55;;;19.92;;
57073;SDS011;69035;54.392;18.574;2023-04-24T06:01:42;35.13;;;20.58;;
57073;SDS011;69035;54.392;18.574;2023-04-24T06:04:16;37.95;;;16.83;;
57073;SDS011;69035;54.392;18.574;2023-04-24T06:09:17;32.72;;;15.57;;
57073;SDS011;69035;54.392;18.574;2023-04-24T06:11:48;32.10;;;15.85;;
57073;SDS011;69035;54.392;18.574;2023-04-24T06:14:17;31.02;;;14.50;;
57073;SDS011;69035;54.392;18.574;2023-04-24T06:17:18;28.75;;;13.98;;
57073;SDS011;69035;54.392;18.574;2023-04-24T06:19:47;28.35;;;13.82;;
57073;SDS011;69035;54.392;18.574;2023-04-24T06:22:18;31.35;;;15.02;;
57073;SDS011;69035;54.392;18.574;2023-04-24T06:24:46;32.03;;;15.07;;
57073;SDS011;69035;54.392;18.574;2023-04-24T06:27:16;33.00;;;14.90;;
57073;SDS011;69035;54.392;18.574;2023-04-24T06:29:45;32.17;;;14.35;;
57073;SDS011;69035;54.392;18.574;2023-04-24T06:32:20;27.20;;;13.95;;
57073;SDS011;69035;54.392;18.574;2023-04-24T06:37:19;26.77;;;13.40;;
57073;SDS011;69035;54.392;18.574;2023-04-24T06:39:48;24.40;;;11.25;;
57073;SDS011;69035;54.392;18.574;2023-04-24T06:42:18;22.90;;;11.68;;
57073;SDS011;69035;54.392;18.574;2023-04-24T06:44:49;25.35;;;13.25;;
57073;SDS011;69035;54.392;18.574;2023-04-24T06:47:17;26.27;;;12.93;;
57073;SDS011;69035;54.392;18.574;2023-04-24T06:49:46;25.00;;;12.57;;
57073;SDS011;69035;54.392;18.574;2023-04-24T06:52:15;21.48;;;10.48;;
57073;SDS011;69035;54.392;18.574;2023-04-24T06:54:43;24.85;;;11.43;;
57073;SDS011;69035;54.392;18.574;2023-04-24T06:57:12;16.10;;;9.98;;
57073;SDS011;69035;54.392;18.574;2023-04-24T06:59:44;17.83;;;10.07;;
57073;SDS011;69035;54.392;18.574;2023-04-24T07:02:13;15.52;;;8.95;;
57073;SDS011;69035;54.392;18.574;2023-04-24T07:04:42;18.23;;;10.07;;
57073;SDS011;69035;54.392;18.574;2023-04-24T07:07:11;17.20;;;8.90;;
57073;SDS011;69035;54.392;18.574;2023-04-24T07:09:42;15.45;;;9.43;;
57073;SDS011;69035;54.392;18.574;2023-04-24T07:12:12;16.90;;;9.45;;
57073;SDS011;69035;54.392;18.574;2023-04-24T07:14:41;17.08;;;10.75;;
57073;SDS011;69035;54.392;18.574;2023-04-24T07:17:11;18.13;;;10.13;;
57073;SDS011;69035;54.392;18.574;2023-04-24T07:19:40;16.52;;;9.48;;
57073;SDS011;69035;54.392;18.574;2023-04-24T07:22:10;16.55;;;9.45;;
57073;SDS011;69035;54.392;18.574;2023-04-24T07:24:43;16.38;;;9.30;;
57073;SDS011;69035;54.392;18.574;2023-04-24T07:27:12;19.92;;;9.68;;
57073;SDS011;69035;54.392;18.574;2023-04-24T07:32:13;19.50;;;9.10;;
57073;SDS011;69035;54.392;18.574;2023-04-24T07:34:42;17.70;;;8.48;;
57073;SDS011;69035;54.392;18.574;2023-04-24T07:37:10;19.73;;;9.57;;
57073;SDS011;69035;54.392;18.574;2023-04-24T07:39:39;23.08;;;11.15;;
57073;SDS011;69035;54.392;18.574;2023-04-24T07:42:08;21.27;;;10.88;;
57073;SDS011;69035;54.392;18.574;2023-04-24T07:44:37;21.02;;;10.88;;
57073;SDS011;69035;54.392;18.574;2023-04-24T07:47:06;24.10;;;10.90;;
57073;SDS011;69035;54.392;18.574;2023-04-24T07:49:35;19.92;;;11.30;;
57073;SDS011;69035;54.392;18.574;2023-04-24T07:52:04;24.73;;;11.23;;
57073;SDS011;69035;54.392;18.574;2023-04-24T07:54:33;18.30;;;11.07;;
57073;SDS011;69035;54.392;18.574;2023-04-24T07:57:02;19.67;;;11.73;;
57073;SDS011;69035;54.392;18.574;2023-04-24T07:59:31;20.42;;;10.88;;
57073;SDS011;69035;54.392;18.574;2023-04-24T08:01:59;20.83;;;11.20;;
57073;SDS011;69035;54.392;18.574;2023-04-24T08:04:28;19.33;;;11.85;;
57073;SDS011;69035;54.392;18.574;2023-04-24T08:06:59;18.85;;;11.18;;
57073;SDS011;69035;54.392;18.574;2023-04-24T08:09:27;17.98;;;11.65;;
57073;SDS011;69035;54.392;18.574;2023-04-24T08:11:57;20.60;;;12.05;;
57073;SDS011;69035;54.392;18.574;2023-04-24T08:14:25;20.88;;;13.43;;
57073;SDS011;69035;54.392;18.574;2023-04-24T08:16:54;24.40;;;15.07;;
57073;SDS011;69035;54.392;18.574;2023-04-24T08:19:24;24.27;;;14.52;;
57073;SDS011;69035;54.392;18.574;2023-04-24T08:21:53;26.10;;;15.83;;
57073;SDS011;69035;54.392;18.574;2023-04-24T08:24:23;25.75;;;15.27;;
57073;SDS011;69035;54.392;18.574;2023-04-24T08:26:53;25.85;;;16.42;;
57073;SDS011;69035;54.392;18.574;2023-04-24T08:29:23;28.08;;;16.77;;
57073;SDS011;69035;54.392;18.574;2023-04-24T08:31:54;26.02;;;15.90;;
57073;SDS011;69035;54.392;18.574;2023-04-24T08:34:22;25.55;;;15.73;;
57073;SDS011;69035;54.392;18.574;2023-04-24T08:36:52;28.00;;;17.63;;
57073;SDS011;69035;54.392;18.574;2023-04-24T08:39:20;25.25;;;16.20;;
57073;SDS011;69035;54.392;18.574;2023-04-24T08:41:51;27.90;;;16.05;;
57073;SDS011;69035;54.392;18.574;2023-04-24T08:44:21;27.50;;;17.33;;
57073;SDS011;69035;54.392;18.574;2023-04-24T08:46:50;29.50;;;17.90;;
57073;SDS011;69035;54.392;18.574;2023-04-24T08:49:19;28.45;;;17.35;;
57073;SDS011;69035;54.392;18.574;2023-04-24T08:51:48;26.75;;;16.83;;
57073;SDS011;69035;54.392;18.574;2023-04-24T08:56:48;27.83;;;18.07;;
57073;SDS011;69035;54.392;18.574;2023-04-24T08:59:18;28.02;;;18.50;;
57073;SDS011;69035;54.392;18.574;2023-04-24T09:01:47;29.85;;;18.98;;
57073;SDS011;69035;54.392;18.574;2023-04-24T09:04:19;33.55;;;20.13;;
57073;SDS011;69035;54.392;18.574;2023-04-24T09:06:52;27.45;;;17.30;;
57073;SDS011;69035;54.392;18.574;2023-04-24T09:09:24;27.77;;;18.65;;
57073;SDS011;69035;54.392;18.574;2023-04-24T09:14:28;27.15;;;18.02;;
57073;SDS011;69035;54.392;18.574;2023-04-24T09:16:59;127.55;;;59.55;;
57073;SDS011;69035;54.392;18.574;2023-04-24T09:19:27;133.60;;;60.03;;
57073;SDS011;69035;54.392;18.574;2023-04-24T09:21:57;34.97;;;20.48;;
57073;SDS011;69035;54.392;18.574;2023-04-24T09:24:25;30.97;;;20.30;;
57073;SDS011;69035;54.392;18.574;2023-04-24T09:26:57;29.75;;;20.13;;
57073;SDS011;69035;54.392;18.574;2023-04-24T09:29:28;32.38;;;19.80;;
57073;SDS011;69035;54.392;18.574;2023-04-24T09:31:57;33.92;;;19.40;;
57073;SDS011;69035;54.392;18.574;2023-04-24T09:34:26;28.05;;;19.15;;
57073;SDS011;69035;54.392;18.574;2023-04-24T09:36:55;27.50;;;18.80;;
57073;SDS011;69035;54.392;18.574;2023-04-24T09:39:24;25.83;;;18.02;;
57073;SDS011;69035;54.392;18.574;2023-04-24T09:41:53;27.15;;;18.85;;
57073;SDS011;69035;54.392;18.574;2023-04-24T09:44:26;23.27;;;17.70;;
57073;SDS011;69035;54.392;18.574;2023-04-24T09:46:57;22.83;;;17.73;;
57073;SDS011;69035;54.392;18.574;2023-04-24T09:49:28;25.40;;;17.73;;
57073;SDS011;69035;54.392;18.574;2023-04-24T09:52:02;25.48;;;18.75;;
57073;SDS011;69035;54.392;18.574;2023-04-24T09:54:32;26.20;;;17.85;;
57073;SDS011;69035;54.392;18.574;2023-04-24T09:57:04;30.98;;;19.10;;
57073;SDS011;69035;54.392;18.574;2023-04-24T09:59:38;24.52;;;18.58;;
57073;SDS011;69035;54.392;18.574;2023-04-24T10:02:16;23.58;;;18.00;;
57073;SDS011;69035;54.392;18.574;2023-04-24T10:04:53;24.35;;;18.48;;
57073;SDS011;69035;54.392;18.574;2023-04-24T10:07:25;23.80;;;17.45;;
57073;SDS011;69035;54.392;18.574;2023-04-24T10:09:54;24.20;;;18.13;;
57073;SDS011;69035;54.392;18.574;2023-04-24T10:12:23;26.63;;;18.17;;
57073;SDS011;69035;54.392;18.574;2023-04-24T10:14:54;24.20;;;17.10;;
57073;SDS011;69035;54.392;18.574;2023-04-24T10:17:24;24.50;;;17.83;;
57073;SDS011;69035;54.392;18.574;2023-04-24T10:19:54;24.50;;;17.17;;
57073;SDS011;69035;54.392;18.574;2023-04-24T10:22:24;22.92;;;16.88;;
57073;SDS011;69035;54.392;18.574;2023-04-24T10:24:53;23.08;;;17.10;;
57073;SDS011;69035;54.392;18.574;2023-04-24T10:27:22;22.70;;;17.38;;
57073;SDS011;69035;54.392;18.574;2023-04-24T10:29:54;23.77;;;17.58;;
57073;SDS011;69035;54.392;18.574;2023-04-24T10:32:23;21.90;;;16.83;;
57073;SDS011;69035;54.392;18.574;2023-04-24T10:34:52;23.95;;;17.02;;
57073;SDS011;69035;54.392;18.574;2023-04-24T10:37:24;22.98;;;17.33;;
57073;SDS011;69035;54.392;18.574;2023-04-24T10:39:54;20.58;;;16.20;;
57073;SDS011;69035;54.392;18.574;2023-04-24T10:42:24;23.92;;;17.25;;
57073;SDS011;69035;54.392;18.574;2023-04-24T10:44:57;21.95;;;16.00;;
57073;SDS011;69035;54.392;18.574;2023-04-24T10:47:26;20.75;;;16.45;;
57073;SDS011;69035;54.392;18.574;2023-04-24T10:49:54;22.80;;;16.15;;
57073;SDS011;69035;54.392;18.574;2023-04-24T10:55:13;22.52;;;16.25;;
57073;SDS011;69035;54.392;18.574;2023-04-24T11:00:34;23.15;;;16.52;;
57073;SDS011;69035;54.392;18.574;2023-04-24T11:03:05;22.95;;;16.83;;
57073;SDS011;69035;54.392;18.574;2023-04-24T11:05:50;24.08;;;17.35;;
57073;SDS011;69035;54.392;18.574;2023-04-24T11:11:11;20.30;;;14.70;;
57073;SDS011;69035;54.392;18.574;2023-04-24T11:16:31;21.30;;;15.38;;
57073;SDS011;69035;54.392;18.574;2023-04-24T11:19:03;22.98;;;15.48;;
57073;SDS011;69035;54.392;18.574;2023-04-24T11:21:40;19.67;;;14.70;;
57073;SDS011;69035;54.392;18.574;2023-04-24T11:24:26;18.42;;;14.45;;
57073;SDS011;69035;54.392;18.574;2023-04-24T11:26:58;22.40;;;15.05;;
57073;SDS011;69035;54.392;18.574;2023-04-24T11:29:39;21.40;;;15.52;;
57073;SDS011;69035;54.392;18.574;2023-04-24T11:32:23;20.70;;;15.10;;
57073;SDS011;69035;54.392;18.574;2023-04-24T11:34:53;17.38;;;14.68;;
57073;SDS011;69035;54.392;18.574;2023-04-24T11:37:23;21.27;;;15.45;;
57073;SDS011;69035;54.392;18.574;2023-04-24T11:39:55;18.55;;;14.80;;
57073;SDS011;69035;54.392;18.574;2023-04-24T11:42:25;18.95;;;14.52;;
57073;SDS011;69035;54.392;18.574;2023-04-24T11:44:54;22.17;;;15.80;;
57073;SDS011;69035;54.392;18.574;2023-04-24T11:47:29;19.67;;;15.38;;
57073;SDS011;69035;54.392;18.574;2023-04-24T11:50:01;20.98;;;15.70;;
57073;SDS011;69035;54.392;18.574;2023-04-24T11:52:31;21.05;;;15.30;;
57073;SDS011;69035;54.392;18.574;2023-04-24T11:54:59;19.02;;;15.77;;
57073;SDS011;69035;54.392;18.574;2023-04-24T11:57:28;19.88;;;14.82;;
57073;SDS011;69035;54.392;18.574;2023-04-24T12:00:00;18.75;;;14.27;;
57073;SDS011;69035;54.392;18.574;2023-04-24T12:02:39;21.05;;;14.50;;
57073;SDS011;69035;54.392;18.574;2023-04-24T12:05:08;15.27;;;9.57;;
57073;SDS011;69035;54.392;18.574;2023-04-24T12:07:40;11.88;;;8.57;;
57073;SDS011;69035;54.392;18.574;2023-04-24T12:10:10;13.23;;;7.93;;
57073;SDS011;69035;54.392;18.574;2023-04-24T12:12:39;11.32;;;7.43;;
57073;SDS011;69035;54.392;18.574;2023-04-24T12:15:08;11.55;;;7.60;;
57073;SDS011;69035;54.392;18.574;2023-04-24T12:17:41;10.82;;;7.22;;
57073;SDS011;69035;54.392;18.574;2023-04-24T12:20:11;12.48;;;7.38;;
57073;SDS011;69035;54.392;18.574;2023-04-24T12:22:44;12.30;;;7.78;;
57073;SDS011;69035;54.392;18.574;2023-04-24T12:25:14;9.32;;;7.22;;
57073;SDS011;69035;54.392;18.574;2023-04-24T12:27:44;12.00;;;7.25;;
57073;SDS011;69035;54.392;18.574;2023-04-24T12:30:15;11.40;;;7.25;;
57073;SDS011;69035;54.392;18.574;2023-04-24T12:32:46;9.30;;;6.70;;
57073;SDS011;69035;54.392;18.574;2023-04-24T12:35:18;11.85;;;6.78;;
57073;SDS011;69035;54.392;18.574;2023-04-24T12:37:48;9.23;;;6.80;;
57073;SDS011;69035;54.392;18.574;2023-04-24T12:40:17;12.63;;;6.97;;
57073;SDS011;69035;54.392;18.574;2023-04-24T12:42:47;9.57;;;6.40;;
57073;SDS011;69035;54.392;18.574;2023-04-24T12:45:17;8.18;;;5.88;;
57073;SDS011;69035;54.392;18.574;2023-04-24T12:47:48;9.07;;;5.80;;
57073;SDS011;69035;54.392;18.574;2023-04-24T12:50:17;9.00;;;5.72;;
57073;SDS011;69035;54.392;18.574;2023-04-24T12:52:45;8.10;;;5.30;;
57073;SDS011;69035;54.392;18.574;2023-04-24T12:55:16;8.00;;;5.50;;
57073;SDS011;69035;54.392;18.574;2023-04-24T12:57:45;11.60;;;6.07;;
57073;SDS011;69035;54.392;18.574;2023-04-24T13:00:14;10.40;;;5.83;;
57073;SDS011;69035;54.392;18.574;2023-04-24T13:02:45;7.75;;;5.60;;
57073;SDS011;69035;54.392;18.574;2023-04-24T13:05:16;10.73;;;6.47;;
57073;SDS011;69035;54.392;18.574;2023-04-24T13:07:45;10.63;;;6.13;;
57073;SDS011;69035;54.392;18.574;2023-04-24T13:10:14;8.85;;;5.32;;
57073;SDS011;69035;54.392;18.574;2023-04-24T13:12:42;10.00;;;5.65;;
57073;SDS011;69035;54.392;18.574;2023-04-24T13:15:12;8.45;;;5.45;;
57073;SDS011;69035;54.392;18.574;2023-04-24T13:17:41;10.68;;;5.55;;
57073;SDS011;69035;54.392;18.574;2023-04-24T13:20:10;8.10;;;5.20;;
57073;SDS011;69035;54.392;18.574;2023-04-24T13:22:41;10.05;;;5.60;;
57073;SDS011;69035;54.392;18.574;2023-04-24T13:25:10;11.35;;;5.80;;
57073;SDS011;69035;54.392;18.574;2023-04-24T13:27:38;8.70;;;5.38;;
57073;SDS011;69035;54.392;18.574;2023-04-24T13:30:07;10.20;;;5.82;;
57073;SDS011;69035;54.392;18.574;2023-04-24T13:32:38;9.82;;;5.55;;
57073;SDS011;69035;54.392;18.574;2023-04-24T13:35:07;8.68;;;5.93;;
57073;SDS011;69035;54.392;18.574;2023-04-24T13:37:36;9.10;;;5.60;;
57073;SDS011;69035;54.392;18.574;2023-04-24T13:40:07;9.20;;;5.60;;
57073;SDS011;69035;54.392;18.574;2023-04-24T13:42:36;11.15;;;5.85;;
57073;SDS011;69035;54.392;18.574;2023-04-24T13:45:05;9.85;;;5.75;;
57073;SDS011;69035;54.392;18.574;2023-04-24T13:47:50;10.20;;;5.30;;
57073;SDS011;69035;54.392;18.574;2023-04-24T13:50:19;9.75;;;5.80;;
57073;SDS011;69035;54.392;18.574;2023-04-24T13:52:48;9.27;;;5.28;;
57073;SDS011;69035;54.392;18.574;2023-04-24T13:55:18;8.52;;;5.05;;
57073;SDS011;69035;54.392;18.574;2023-04-24T13:57:47;13.30;;;5.05;;
57073;SDS011;69035;54.392;18.574;2023-04-24T14:00:16;10.63;;;5.97;;
57073;SDS011;69035;54.392;18.574;2023-04-24T14:02:45;11.88;;;5.63;;
57073;SDS011;69035;54.392;18.574;2023-04-24T14:05:15;8.02;;;5.45;;
57073;SDS011;69035;54.392;18.574;2023-04-24T14:07:44;8.55;;;5.57;;
57073;SDS011;69035;54.392;18.574;2023-04-24T14:10:15;11.30;;;6.00;;
57073;SDS011;69035;54.392;18.574;2023-04-24T14:12:44;9.15;;;5.75;;
57073;SDS011;69035;54.392;18.574;2023-04-24T14:15:13;8.13;;;5.70;;
57073;SDS011;69035;54.392;18.574;2023-04-24T14:17:42;7.93;;;6.13;;
57073;SDS011;69035;54.392;18.574;2023-04-24T14:20:14;9.70;;;5.88;;
57073;SDS011;69035;54.392;18.574;2023-04-24T14:22:42;9.25;;;5.70;;
57073;SDS011;69035;54.392;18.574;2023-04-24T14:25:11;8.05;;;6.05;;
57073;SDS011;69035;54.392;18.574;2023-04-24T14:27:40;12.18;;;6.22;;
57073;SDS011;69035;54.392;18.574;2023-04-24T14:30:10;8.73;;;6.35;;
57073;SDS011;69035;54.392;18.574;2023-04-24T14:32:42;10.40;;;6.20;;
57073;SDS011;69035;54.392;18.574;2023-04-24T14:35:11;9.38;;;6.78;;
57073;SDS011;69035;54.392;18.574;2023-04-24T14:40:10;8.07;;;6.28;;
57073;SDS011;69035;54.392;18.574;2023-04-24T14:42:58;9.55;;;5.72;;
57073;SDS011;69035;54.392;18.574;2023-04-24T14:45:29;9.90;;;6.00;;
57073;SDS011;69035;54.392;18.574;2023-04-24T14:47:57;11.63;;;6.45;;
57073;SDS011;69035;54.392;18.574;2023-04-24T14:50:26;11.23;;;6.10;;
57073;SDS011;69035;54.392;18.574;2023-04-24T14:52:55;9.27;;;6.22;;
57073;SDS011;69035;54.392;18.574;2023-04-24T14:55:25;10.00;;;6.65;;
57073;SDS011;69035;54.392;18.574;2023-04-24T14:57:54;8.43;;;6.60;;
57073;SDS011;69035;54.392;18.574;2023-04-24T15:00:23;9.18;;;6.72;;
57073;SDS011;69035;54.392;18.574;2023-04-24T15:02:53;10.53;;;6.80;;
57073;SDS011;69035;54.392;18.574;2023-04-24T15:05:22;10.23;;;7.00;;
57073;SDS011;69035;54.392;18.574;2023-04-24T15:07:52;11.23;;;6.97;;
57073;SDS011;69035;54.392;18.574;2023-04-24T15:12:50;11.55;;;8.57;;
57073;SDS011;69035;54.392;18.574;2023-04-24T15:15:19;11.23;;;8.73;;